Latest Weather Observations for Parkes Airport

IDN60801

Issued at 11:03 pm EDT Friday 27 March 2015 (issued every 30 minutes, with the page automatically refreshed every 10 minutes)

About weather observations | Map of weather stations | Latest weather observations for NSW | Other Formats
Station Details ID: 065068 Name: PARKES AIRPORT AWS Lat: -33.13 Lon: 148.24 Height: 323.3 m
Data from the previous 72 hours. | See also: Recent months at Parkes Airport
Date/Time
EDT
Temp
°C
App
Temp
°C
Dew
Point
Rel
Hum
%
Delta-T
°C
Wind Press
QNH
hPa
Press
MSL
hPa
Rain
since 9 am
mm
Dir
 
Spd
km/h
Gust
km/h
Spd
kts
Gust
kts
27/11:00pm 9.9 8.1 1.5 56 3.5 CALM 0 0 0 0 1023.5 1022.3 0.0
27/10:30pm 11.6 9.9 1.8 51 4.2 CALM 0 0 0 0 1023.5 1022.3 0.0
27/10:00pm 13.0 10.1 2.5 49 4.7 SSW 7 9 4 5 1023.3 1022.1 0.0
27/09:30pm 14.0 10.9 3.8 50 4.7 SSW 9 9 5 5 1023.2 1022.0 0.0
27/09:00pm 14.3 11.5 2.9 46 5.2 SSW 7 7 4 4 1023.0 1021.8 0.0
27/08:30pm 14.7 11.9 2.9 45 5.4 SSW 7 9 4 5 1022.7 1021.5 0.0
27/08:00pm 15.3 12.6 3.5 45 5.5 SSW 7 9 4 5 1022.3 1021.0 0.0
27/07:30pm 16.6 13.0 3.0 40 6.3 SW 11 15 6 8 1022.0 1020.7 0.0
27/07:00pm 19.1 13.9 3.3 35 7.5 SW 20 28 11 15 1021.8 1020.5 0.0
27/06:30pm 20.0 14.8 3.3 33 8.0 SW 20 28 11 15 1021.5 1020.2 0.0
27/06:00pm 20.9 15.3 3.6 32 8.4 SW 22 28 12 15 1021.3 1020.0 0.0
27/05:30pm 20.8 14.8 3.1 31 8.5 SSW 24 32 13 17 1021.2 1019.9 0.0
27/05:00pm 21.7 15.3 3.4 30 8.9 SW 26 35 14 19 1021.1 1019.8 0.0
27/04:30pm 21.9 15.9 3.6 30 9.0 SSW 24 39 13 21 1021.3 1020.0 0.0
27/04:00pm 21.7 15.6 2.9 29 9.0 SW 24 33 13 18 1021.4 1020.1 0.0
27/03:30pm 21.5 15.5 3.2 30 8.9 SW 24 35 13 19 1021.6 1020.3 0.0
27/03:00pm 20.6 15.6 3.8 33 8.1 SW 19 32 10 17 1022.0 1020.7 0.0
27/02:30pm 20.3 14.3 3.5 33 8.1 SW 24 39 13 21 1022.4 1021.1 0.0
27/02:00pm 20.5 14.9 3.7 33 8.1 SW 22 41 12 22 1022.9 1021.7 0.0
27/01:30pm 19.6 14.1 4.1 36 7.5 SW 22 32 12 17 1023.3 1022.1 0.0
27/01:00pm 19.6 14.9 5.3 39 7.1 SSW 19 35 10 19 1023.9 1022.6 0.0
27/12:30pm 18.6 12.8 4.4 39 6.9 SW 24 33 13 18 1024.4 1023.1 0.0
27/12:00pm 16.6 11.4 3.6 42 6.1 SSW 20 32 11 17 1024.8 1023.5 0.0
27/11:30am 16.8 11.8 4.5 44 5.9 SSW 20 30 11 16 1025.2 1023.9 0.0
27/11:00am 16.4 11.4 4.4 45 5.7 SSW 20 33 11 18 1025.3 1024.1 0.0
27/10:30am 15.1 10.0 3.9 47 5.2 SSW 20 30 11 16 1025.3 1024.1 0.0
27/10:00am 14.3 8.7 3.7 49 4.9 SSW 22 30 12 16 1025.3 1024.1 0.0
27/09:30am 13.2 8.0 3.3 51 4.5 SSW 20 33 11 18 1025.2 1023.9 0.0
27/09:00am 11.6 7.7 1.3 49 4.4 SW 11 15 6 8 1025.3 1024.1 0.0
27/08:30am 7.9 5.9 -0.1 57 3.2 CALM 0 0 0 0 1025.1 1023.8 0.0
27/08:00am 5.2 1.8 -0.6 66 2.2 ENE 7 9 4 5 1025.0 1023.7 0.0
27/07:30am 2.5 -1.1 -2.2 71 1.7 ENE 7 9 4 5 1024.7 1023.4 0.0
27/07:00am 2.3 -0.4 -2.6 70 1.7 E 2 9 1 5 1024.4 1023.1 0.0
27/06:30am 3.1 0.9 -1.6 71 1.7 CALM 0 0 0 0 1024.0 1022.7 0.0
27/06:00am 2.8 -0.9 -2.7 67 1.9 E 7 9 4 5 1023.7 1022.5 0.0
27/05:30am 3.1 0.8 -2.4 67 2.0 CALM 0 0 0 0 1023.4 1022.2 0.0
27/05:00am 3.6 0.9 -2.1 66 2.1 E 2 6 1 3 1023.3 1022.1 0.0
27/04:30am 3.5 -0.1 -2.2 66 2.1 ENE 7 9 4 5 1023.2 1022.0 0.0
27/04:00am 3.8 -0.2 -2.2 65 2.2 NE 9 9 5 5 1023.1 1021.9 0.0
27/03:30am 4.4 1.0 -2.2 62 2.4 ENE 6 7 3 4 1023.1 1021.9 0.0
27/03:00am 5.2 1.6 -2.1 59 2.7 ENE 7 9 4 5 1023.4 1022.2 0.0
27/02:30am 5.8 2.4 -2.0 57 2.9 NNE 6 7 3 4 1023.7 1022.5 0.0
27/02:00am 6.3 4.1 -1.8 56 3.0 CALM 0 0 0 0 1023.9 1022.6 0.0
27/01:30am 6.6 4.3 -2.3 53 3.3 CALM 0 0 0 0 1024.1 1022.8 0.0
27/01:00am 8.8 6.2 -1.6 48 4.0 SSW 2 7 1 4 1024.1 1022.8 0.0
27/12:30am 8.6 6.4 -1.5 49 3.9 CALM 0 0 0 0 1024.2 1022.9 0.0
27/12:00am 7.9 5.6 -2.7 47 4.0 CALM 0 0 0 0 1024.3 1023.0 0.0
 
Date/Time
EDT
Temp
°C
App
Temp
°C
Dew
Point
Rel
Hum
%
Delta-T
°C
Wind Press
QNH
hPa
Press
MSL
hPa
Rain
since 9 am
mm
Dir
 
Spd
km/h
Gust
km/h
Spd
kts
Gust
kts
26/11:30pm 9.7 7.5 -1.9 44 4.5 CALM 0 0 0 0 1024.3 1023.0 0.0
26/11:00pm 9.8 7.5 -2.2 43 4.6 CALM 0 6 0 3 1024.2 1022.9 0.0
26/10:30pm 11.6 7.7 -1.5 40 5.3 SSW 9 9 5 5 1024.0 1022.7 0.0
26/10:00pm 12.3 7.9 -2.3 36 5.8 SSW 11 13 6 7 1023.6 1022.4 0.0
26/09:30pm 12.7 8.3 -2.3 35 6.0 SSW 11 11 6 6 1023.5 1022.3 0.0
26/09:00pm 13.0 8.2 -2.5 34 6.2 SSW 13 15 7 8 1023.3 1022.1 0.0
26/08:30pm 13.9 8.7 -2.9 31 6.7 SW 15 17 8 9 1022.9 1021.7 0.0
26/08:00pm 15.3 9.6 -3.6 27 7.5 SW 17 20 9 11 1022.3 1021.0 0.0
26/07:30pm 16.6 10.4 -3.5 25 8.1 SW 20 24 11 13 1021.8 1020.5 0.0
26/07:00pm 18.1 11.4 -1.2 27 8.3 SW 24 32 13 17 1021.4 1020.1 0.0
26/06:30pm 19.4 12.6 0.9 29 8.4 WSW 26 32 14 17 1021.0 1019.7 0.0
26/06:00pm 20.4 13.4 1.8 29 8.7 WSW 28 39 15 21 1020.8 1019.5 0.0
26/05:30pm 20.9 13.2 2.2 29 8.8 WSW 32 46 17 25 1020.4 1019.2 0.0
26/05:00pm 21.7 15.9 4.3 32 8.6 WSW 24 35 13 19 1020.2 1019.0 0.0
26/04:30pm 22.2 15.1 3.8 30 9.1 SW 30 39 16 21 1020.1 1018.9 0.0
26/04:00pm 22.0 15.3 3.6 30 9.0 W 28 43 15 23 1020.2 1019.0 0.0
26/03:46pm 22.3 15.6 3.4 29 9.2 W 28 48 15 26 1020.0 1018.8 0.0
26/03:30pm 23.0 15.3 3.5 28 9.6 WSW 33 54 18 29 1020.1 1018.9 0.0
26/03:27pm 23.2 15.7 3.2 27 9.8 WSW 32 54 17 29 1020.0 1018.8 0.0
26/03:25pm 23.4 16.7 3.4 27 9.8 WSW 28 54 15 29 1020.0 1018.8 0.0
26/03:00pm 22.4 16.6 2.5 27 9.5 W 22 35 12 19 1020.1 1018.9 0.0
26/02:30pm 22.1 16.0 2.8 28 9.3 WSW 24 37 13 20 1020.4 1019.2 0.0
26/02:00pm 21.7 15.9 2.4 28 9.2 W 22 33 12 18 1020.8 1019.5 0.0
26/01:30pm 21.7 15.2 2.4 28 9.2 SW 26 35 14 19 1021.1 1019.8 0.0
26/01:00pm 21.2 15.3 2.0 28 9.0 WSW 22 35 12 19 1021.1 1019.8 0.0
26/12:30pm 20.3 15.0 1.7 29 8.7 WSW 19 32 10 17 1021.3 1020.0 0.0
26/12:00pm 20.8 14.4 3.1 31 8.5 WSW 26 35 14 19 1021.7 1020.4 0.0
26/11:30am 20.0 14.2 2.4 31 8.3 SW 22 37 12 20 1021.6 1020.3 0.0
26/11:00am 19.5 14.2 2.8 33 7.9 SW 20 35 11 19 1021.5 1020.2 0.0
26/10:30am 19.0 13.8 2.4 33 7.8 SW 19 26 10 14 1021.5 1020.2 0.0
26/10:00am 17.9 13.3 1.8 34 7.3 SSW 15 22 8 12 1021.4 1020.1 0.0
26/09:30am 16.4 14.8 4.4 45 5.7 NE 2 6 1 3 1021.2 1019.9 0.0
26/09:00am 13.8 11.2 4.4 53 4.4 NE 7 9 4 5 1021.1 1019.8 -
26/08:30am 11.2 8.2 4.0 61 3.3 NE 9 9 5 5 1020.7 1019.4 -
26/08:00am 8.4 4.9 3.5 71 2.1 ENE 11 13 6 7 1020.2 1019.0 -
26/07:30am 5.8 2.7 1.3 73 1.8 ENE 7 11 4 6 1020.2 1019.0 -
26/07:00am 6.3 2.5 2.0 74 1.8 ENE 11 13 6 7 1019.8 1018.6 -
26/06:30am 5.3 1.7 0.7 72 1.8 NE 9 11 5 6 1019.7 1018.4 -
26/06:00am 6.3 3.2 1.6 72 1.9 NE 7 9 4 5 1019.4 1018.1 -
26/05:30am 5.7 2.5 0.5 69 2.1 NE 7 9 4 5 1019.2 1017.9 -
26/05:00am 5.8 2.1 0.0 66 2.3 NE 9 9 5 5 1019.0 1017.7 -
26/04:30am 6.3 2.6 0.0 64 2.5 ENE 9 11 5 6 1018.9 1017.6 -
26/04:00am 7.2 3.6 0.9 64 2.6 NE 9 9 5 5 1018.9 1017.6 -
26/03:30am 7.3 3.3 0.5 62 2.7 ENE 11 13 6 7 1018.8 1017.5 -
26/03:00am 8.3 5.2 1.2 61 2.9 ENE 7 9 4 5 1018.9 1017.6 0.0
26/02:30am 8.1 4.5 0.6 59 3.1 ENE 9 11 5 6 1019.0 1017.7 -
26/02:00am 8.5 5.3 0.7 58 3.2 ENE 7 9 4 5 1019.0 1017.7 -
26/01:30am 9.1 5.9 0.6 55 3.5 E 7 9 4 5 1018.9 1017.6 -
26/01:00am 10.0 6.1 1.1 54 3.7 E 11 13 6 7 1018.7 1017.4 -
26/12:30am 9.7 5.8 1.1 55 3.6 ENE 11 11 6 6 1018.6 1017.3 -
26/12:00am 9.5 5.7 -0.4 50 4.0 E 9 11 5 6 1018.5 1017.2 -
 
Date/Time
EDT
Temp
°C
App
Temp
°C
Dew
Point
Rel
Hum
%
Delta-T
°C
Wind Press
QNH
hPa
Press
MSL
hPa
Rain
since 9 am
mm
Dir
 
Spd
km/h
Gust
km/h
Spd
kts
Gust
kts
25/11:30pm 11.2 7.0 1.5 51 4.2 E 13 13 7 7 1018.5 1017.2 -
25/11:00pm 10.3 6.7 0.3 50 4.1 E 9 13 5 7 1018.6 1017.3 -
25/10:30pm 12.2 9.6 0.9 46 4.8 E 4 9 2 5 1018.5 1017.2 -
25/10:00pm 12.1 10.2 0.5 45 4.9 CALM 0 0 0 0 1018.5 1017.2 -
25/09:30pm 12.8 10.8 0.2 42 5.3 CALM 0 0 0 0 1018.2 1016.9 -
25/09:00pm 16.1 12.8 0.3 34 6.9 SSW 7 9 4 5 1017.8 1016.5 0.0
25/08:30pm 16.3 12.6 0.0 33 7.1 SSW 9 11 5 6 1017.4 1016.1 -
25/08:00pm 16.8 12.7 -0.4 31 7.4 SSW 11 11 6 6 1016.9 1015.6 -
25/07:30pm 17.7 13.1 -1.0 28 8.1 WSW 13 15 7 8 1016.6 1015.3 -
25/07:00pm 21.8 16.9 -0.8 22 10.1 WNW 15 20 8 11 1016.3 1015.0 -
25/06:30pm 23.3 18.3 -0.9 20 11.0 W 15 19 8 10 1016.0 1014.7 -
25/06:00pm 24.0 19.1 -0.3 20 11.2 W 15 22 8 12 1015.7 1014.4 -
25/05:30pm 24.9 20.0 -0.3 19 11.7 WNW 15 20 8 11 1015.5 1014.2 -
25/05:00pm 24.7 21.4 0.3 20 11.4 ENE 7 17 4 9 1015.3 1014.0 -
25/04:30pm 25.0 21.7 -0.2 19 11.7 SW 7 17 4 9 1015.5 1014.2 -
25/04:00pm 23.8 19.3 -0.5 20 11.1 SW 13 24 7 13 1015.9 1014.6 -
25/03:30pm 23.7 19.7 0.7 22 10.8 SW 11 22 6 12 1016.1 1014.8 -
25/03:00pm 23.4 18.3 0.5 22 10.7 WSW 17 26 9 14 1016.1 1014.8 -
25/02:30pm 23.1 18.4 0.9 23 10.4 W 15 26 8 14 1016.3 1015.0 -
25/02:00pm 23.5 20.3 2.9 26 10.0 W 9 20 5 11 1016.4 1015.1 -
25/01:30pm 23.0 19.5 3.5 28 9.6 WSW 11 17 6 9 1016.9 1015.6 -
25/01:00pm 22.1 18.6 3.3 29 9.1 NNW 11 20 6 11 1017.3 1016.0 -
25/12:30pm 21.0 17.6 4.1 33 8.3 NNE 11 19 6 10 1017.8 1016.5 -
25/12:00pm 19.9 16.5 4.0 35 7.7 NW 11 20 6 11 1018.0 1016.7 -
25/11:30am 19.1 15.8 4.5 38 7.1 SW 11 19 6 10 1018.0 1016.7 0.0
25/11:00am 18.1 14.8 4.7 41 6.5 WSW 11 17 6 9 1018.4 1017.1 0.0
25/10:30am 17.4 14.2 5.0 44 6.0 WSW 11 17 6 9 1018.7 1017.4 0.0
25/10:00am 16.1 13.0 5.7 50 5.1 SW 11 13 6 7 1018.7 1017.4 0.0
25/09:00am 12.4 11.1 5.8 64 3.1 NE 2 6 1 3 1018.4 1017.1 0.0
25/08:30am 9.5 7.1 5.3 75 1.9 NE 7 9 4 5 1018.1 1016.8 0.0
25/08:00am 7.2 4.7 4.5 83 1.2 NE 7 9 4 5 1018.1 1016.8 0.0
25/07:30am 4.4 1.1 2.6 88 0.7 ENE 9 13 5 7 1017.7 1016.4 0.0
25/07:00am 4.6 1.7 2.6 87 0.8 E 7 11 4 6 1017.1 1015.9 0.0
25/06:30am 5.2 2.4 3.4 88 0.8 ENE 7 13 4 7 1016.9 1015.6 0.0
25/06:00am 5.6 2.8 3.4 86 0.9 ESE 7 9 4 5 1016.6 1015.3 0.0
25/05:30am 5.4 2.5 2.8 83 1.1 ENE 7 11 4 6 1016.5 1015.2 0.0
25/05:00am 6.4 4.6 3.4 81 1.3 ENE 2 7 1 4 1016.4 1015.1 0.0
25/04:30am 6.7 4.2 3.5 80 1.4 SE 6 11 3 6 1016.3 1015.0 0.0
25/04:00am 7.6 5.5 4.0 78 1.6 SSW 4 9 2 5 1016.2 1014.9 0.0
25/03:30am 8.8 7.6 4.8 76 1.8 CALM 0 0 0 0 1016.3 1015.0 0.0
25/03:00am 8.9 6.3 4.1 72 2.1 SW 7 9 4 5 1016.4 1015.1 0.0
25/02:30am 10.2 7.3 4.8 69 2.5 SSW 9 9 5 5 1016.8 1015.5 0.0
25/02:00am 10.3 7.4 4.9 69 2.5 S 9 9 5 5 1016.8 1015.5 0.0
25/01:30am 10.2 9.0 4.6 68 2.6 CALM 0 0 0 0 1016.7 1015.4 0.0
25/01:00am 9.9 8.7 4.7 70 2.4 CALM 0 0 0 0 1016.6 1015.3 0.0
25/12:30am 11.8 10.7 5.2 64 3.1 CALM 0 0 0 0 1016.6 1015.3 0.0
25/12:00am 12.7 11.9 6.3 65 3.1 CALM 0 0 0 0 1016.5 1015.2 0.0
 
Date/Time
EDT
Temp
°C
App
Temp
°C
Dew
Point
Rel
Hum
%
Delta-T
°C
Wind Press
QNH
hPa
Press
MSL
hPa
Rain
since 9 am
mm
Dir
 
Spd
km/h
Gust
km/h
Spd
kts
Gust
kts
24/11:30pm 11.7 10.8 6.2 69 2.6 CALM 0 0 0 0 1016.5 1015.2 0.0

Other Formats:

Comma delimited format used in spreadsheet applications
http://www.bom.gov.au/fwo/IDN60801/IDN60801.95717.axf

JavaScript Object Notation format (JSON) in row-major order
http://www.bom.gov.au/fwo/IDN60801/IDN60801.95717.json